Sunapee, New Hampshire
Current Conditions -  °F | °C
As of 7:53 AM on Friday 24 Oct 2014 (Local Time) from KLEB Reporting Station
Overcast Overcast  
Wind Chill: 42°   Ceiling: 900
Heat Index: 46°   Visibility: 10mi
Dew Point: 41°   Wind: 7mph
Humidity: 83%   Direction: 350°N
Pressure: 29.77"   Gusts: NA
Location:  43.39°N, 72.09°W
Report Text: KLEB 241153Z 35006KT 10SM OVC009 08/05 A2977 RMK AO2 CIG 006V011 SLP081 60006 70086 T00780050 10083 20078 53005
Loading
Personal Weather Stations






























Interactive Weather Map
Tropical Storm Tracking
New forecast layout! Learn more

10-Day Weather Forecast

Advertisements
Track Severe Weather on mobile